createdAt,value
2023-07-18T00:00:26.774Z,13.32
2023-07-18T00:03:07.390Z,13.28
2023-07-18T00:05:47.840Z,13.26
2023-07-18T00:08:27.677Z,13.29
2023-07-18T00:11:10.400Z,13.31
2023-07-18T00:13:53.758Z,13.32
2023-07-18T00:16:34.124Z,13.42
2023-07-18T00:19:14.203Z,13.49
2023-07-18T00:21:53.822Z,13.43
2023-07-18T00:24:33.367Z,13.38
2023-07-18T00:27:17.932Z,13.32
2023-07-18T00:30:11.206Z,13.23
2023-07-18T00:32:52.889Z,13.38
2023-07-18T00:35:33.014Z,13.42
2023-07-18T00:38:15.805Z,13.33
2023-07-18T00:40:55.348Z,13.15
2023-07-18T00:43:36.059Z,13.13
2023-07-18T00:46:19.993Z,13.13
2023-07-18T00:48:59.996Z,13.11
2023-07-18T00:51:39.619Z,13.02
2023-07-18T00:54:28.713Z,12.96
2023-07-18T00:57:13.849Z,12.95
2023-07-18T00:59:54.205Z,12.96
2023-07-18T01:02:45.036Z,13.02
2023-07-18T01:05:27.758Z,13.09
2023-07-18T01:08:07.798Z,13.06
2023-07-18T01:10:47.777Z,12.92
2023-07-18T01:13:27.410Z,12.84
2023-07-18T01:16:07.186Z,12.77
2023-07-18T01:18:46.677Z,12.65
2023-07-18T01:21:26.469Z,12.52
2023-07-18T01:24:07.053Z,12.41
2023-07-18T01:26:46.694Z,12.30
2023-07-18T01:29:36.254Z,12.19
2023-07-18T01:32:15.982Z,12.17
2023-07-18T01:34:55.563Z,12.20
2023-07-18T01:40:21.829Z,12.24
2023-07-18T01:43:02.554Z,12.20
2023-07-18T01:45:42.315Z,12.12
2023-07-18T01:48:22.909Z,12.10
2023-07-18T01:51:02.565Z,12.07
2023-07-18T01:53:42.164Z,12.03
2023-07-18T01:56:31.318Z,12.03
2023-07-18T01:59:11.031Z,12.03
2023-07-18T02:01:52.766Z,12.05
2023-07-18T02:04:32.457Z,12.02
2023-07-18T02:07:12.090Z,12.03
2023-07-18T02:09:52.168Z,12.01
2023-07-18T02:12:31.824Z,11.98
2023-07-18T02:15:14.594Z,11.88
2023-07-18T02:17:54.352Z,11.82
2023-07-18T02:20:34.012Z,11.79
2023-07-18T02:23:13.683Z,11.76
2023-07-18T02:25:53.308Z,11.79
2023-07-18T02:28:32.969Z,11.74
2023-07-18T02:31:12.597Z,11.69
2023-07-18T02:33:52.215Z,11.76
2023-07-18T02:36:34.656Z,11.79
2023-07-18T02:39:14.177Z,11.78
2023-07-18T02:41:53.844Z,11.78
2023-07-18T02:44:33.333Z,11.75
2023-07-18T02:47:12.923Z,11.74
2023-07-18T02:49:52.603Z,11.79
2023-07-18T02:52:32.178Z,11.85
2023-07-18T02:55:12.003Z,11.83
2023-07-18T02:57:51.676Z,11.82
2023-07-18T03:00:35.130Z,11.85
2023-07-18T03:03:14.851Z,11.83
2023-07-18T03:05:55.958Z,11.89
2023-07-18T03:08:37.821Z,11.93
2023-07-18T03:11:17.842Z,11.92
2023-07-18T03:13:57.625Z,12.02
2023-07-18T03:16:37.363Z,11.99
2023-07-18T03:19:17.033Z,11.96
2023-07-18T03:21:56.273Z,11.91
2023-07-18T03:24:36.905Z,11.95
2023-07-18T03:27:16.063Z,11.99
2023-07-18T03:29:55.715Z,12.01
2023-07-18T03:32:35.973Z,11.96
2023-07-18T03:35:15.787Z,12.02
2023-07-18T03:37:56.589Z,12.07
2023-07-18T03:40:36.250Z,12.16
2023-07-18T03:43:16.403Z,12.10
2023-07-18T03:46:06.679Z,12.09
2023-07-18T03:48:46.356Z,12.02
2023-07-18T03:51:27.414Z,11.98
2023-07-18T03:54:06.104Z,11.98
2023-07-18T03:56:45.702Z,11.93
2023-07-18T03:59:25.416Z,11.93
2023-07-18T04:02:05.108Z,11.93
2023-07-18T04:04:44.665Z,11.93
2023-07-18T04:07:24.269Z,11.95
2023-07-18T04:10:05.241Z,11.98
2023-07-18T04:12:45.854Z,11.96
2023-07-18T04:15:25.577Z,11.99
2023-07-18T04:18:05.675Z,11.99
2023-07-18T04:20:45.240Z,12.02
2023-07-18T04:23:24.910Z,12.02
2023-07-18T04:26:06.412Z,12.16
2023-07-18T04:28:46.124Z,12.16
2023-07-18T04:31:25.936Z,12.23
2023-07-18T04:34:05.388Z,12.41
2023-07-18T04:36:45.621Z,12.57
2023-07-18T04:39:25.537Z,12.68
2023-07-18T04:42:08.029Z,12.82
2023-07-18T04:44:47.759Z,12.88
2023-07-18T04:50:11.994Z,13.15
2023-07-18T04:52:53.160Z,13.26
2023-07-18T04:55:32.690Z,13.39
2023-07-18T04:58:12.458Z,13.57
2023-07-18T05:00:52.588Z,13.68
2023-07-18T05:03:41.232Z,13.78
2023-07-18T05:06:20.398Z,14.17
2023-07-18T05:09:00.032Z,14.56
2023-07-18T05:11:39.495Z,14.69
2023-07-18T05:14:19.101Z,14.80
2023-07-18T05:16:58.739Z,15.00
2023-07-18T05:19:38.383Z,15.37
2023-07-18T05:22:29.654Z,15.79
2023-07-18T05:25:11.377Z,16.05
2023-07-18T05:27:51.168Z,16.33
2023-07-18T05:30:30.858Z,16.36
2023-07-18T05:33:21.681Z,16.57
2023-07-18T05:36:01.370Z,16.69
2023-07-18T05:38:41.524Z,16.85
2023-07-18T05:41:26.181Z,16.91
2023-07-18T05:44:06.182Z,17.05
2023-07-18T05:46:45.876Z,17.02
2023-07-18T05:49:25.556Z,17.22
2023-07-18T05:52:05.745Z,16.84
2023-07-18T05:54:46.472Z,16.67
2023-07-18T05:57:28.961Z,16.51
2023-07-18T06:00:11.645Z,16.41
2023-07-18T06:02:55.565Z,16.28
2023-07-18T06:05:33.802Z,16.24
2023-07-18T06:08:14.246Z,16.40
2023-07-18T06:11:02.464Z,16.41
2023-07-18T06:13:45.076Z,16.48
2023-07-18T06:16:25.882Z,16.43
2023-07-18T06:19:17.117Z,16.47
2023-07-18T06:21:56.723Z,16.47
2023-07-18T06:24:39.352Z,16.46
2023-07-18T06:27:26.295Z,16.50
2023-07-18T06:30:06.953Z,16.53
2023-07-18T06:32:46.596Z,16.30
2023-07-18T06:35:26.990Z,16.40
2023-07-18T06:38:06.741Z,16.60
2023-07-18T06:40:51.923Z,16.64
2023-07-18T06:43:31.714Z,16.84
2023-07-18T06:46:11.423Z,16.76
2023-07-18T06:48:51.121Z,16.85
2023-07-18T06:51:30.866Z,17.00
2023-07-18T06:54:16.040Z,17.02
2023-07-18T06:56:56.371Z,17.07
2023-07-18T06:59:36.522Z,17.56
2023-07-18T07:02:24.913Z,17.29
2023-07-18T07:05:13.222Z,17.43
2023-07-18T07:08:02.213Z,17.32
2023-07-18T07:10:50.716Z,17.29
2023-07-18T07:13:40.439Z,17.23
2023-07-18T07:16:28.644Z,17.25
2023-07-18T07:19:18.457Z,17.35
2023-07-18T07:22:07.103Z,17.29
2023-07-18T07:24:58.467Z,17.54
2023-07-18T07:27:50.295Z,17.51
2023-07-18T07:30:38.695Z,17.58
2023-07-18T07:33:27.206Z,17.74
2023-07-18T07:36:16.478Z,17.79
2023-07-18T07:39:05.074Z,17.97
2023-07-18T07:41:53.438Z,18.05
2023-07-18T07:44:41.579Z,18.08
2023-07-18T07:47:29.788Z,18.21
2023-07-18T07:50:20.469Z,18.22
2023-07-18T07:53:08.732Z,18.29
2023-07-18T07:55:57.246Z,18.33
2023-07-18T07:58:57.393Z,18.33
2023-07-18T08:01:34.761Z,18.24
2023-07-18T08:04:24.434Z,18.43
2023-07-18T08:07:12.429Z,18.59
2023-07-18T08:10:02.203Z,18.59
2023-07-18T08:12:47.358Z,18.59
2023-07-18T08:15:35.636Z,18.86
2023-07-18T08:18:24.030Z,18.80
2023-07-18T08:21:12.777Z,18.74
2023-07-18T08:24:00.896Z,18.87
2023-07-18T08:26:49.061Z,19.00
2023-07-18T08:29:37.275Z,19.27
2023-07-18T08:32:28.157Z,19.65
2023-07-18T08:35:14.617Z,19.58
2023-07-18T08:38:03.256Z,19.65
2023-07-18T08:40:51.798Z,20.38
2023-07-18T08:43:21.798Z,20.30
2023-07-18T08:45:51.511Z,20.27
2023-07-18T08:48:27.429Z,20.31
2023-07-18T08:51:16.324Z,20.52
2023-07-18T08:54:04.604Z,20.09
2023-07-18T08:56:53.352Z,20.26
2023-07-18T08:59:42.395Z,20.31
2023-07-18T09:02:31.204Z,20.42
2023-07-18T09:05:40.253Z,20.71
2023-07-18T09:08:28.376Z,20.67
2023-07-18T09:11:22.236Z,20.54
2023-07-18T09:14:09.596Z,20.62
2023-07-18T09:17:00.826Z,20.57
2023-07-18T09:19:50.144Z,20.88
2023-07-18T09:22:41.585Z,21.17
2023-07-18T09:25:29.973Z,21.16
2023-07-18T09:28:18.175Z,21.43
2023-07-18T09:31:24.937Z,21.35
2023-07-18T09:34:14.134Z,21.40
2023-07-18T09:37:05.277Z,20.85
2023-07-18T09:39:55.716Z,21.33
2023-07-18T09:42:47.981Z,21.40
2023-07-18T09:45:36.945Z,21.35
2023-07-18T09:48:25.608Z,21.37
2023-07-18T09:51:22.881Z,21.44
2023-07-18T09:54:13.000Z,21.56
2023-07-18T09:57:06.648Z,21.64
2023-07-18T09:59:59.459Z,21.50
2023-07-18T10:02:48.044Z,21.51
2023-07-18T10:05:36.551Z,21.51
2023-07-18T10:08:24.945Z,21.87
2023-07-18T10:11:13.376Z,21.53
2023-07-18T10:14:03.845Z,21.46
2023-07-18T10:17:06.339Z,22.09
2023-07-18T10:19:54.613Z,22.30
2023-07-18T10:22:54.809Z,22.25
2023-07-18T10:25:57.286Z,22.05
2023-07-18T10:28:49.937Z,22.45
2023-07-18T10:31:39.416Z,22.49
2023-07-18T10:34:28.187Z,22.26
2023-07-18T10:37:41.499Z,22.80
2023-07-18T10:40:40.545Z,22.53
2023-07-18T10:43:28.543Z,22.86
2023-07-18T10:46:17.702Z,23.01
2023-07-18T10:49:05.996Z,23.20
2023-07-18T10:51:58.235Z,23.89
2023-07-18T10:55:14.112Z,24.65
2023-07-18T10:58:02.315Z,24.65
2023-07-18T11:00:52.518Z,25.02
2023-07-18T11:03:24.163Z,24.47
2023-07-18T11:05:54.985Z,24.20
2023-07-18T11:08:32.111Z,24.10
2023-07-18T11:11:06.336Z,23.72
2023-07-18T11:13:39.710Z,23.48
2023-07-18T11:16:10.686Z,23.48
2023-07-18T11:18:48.052Z,23.82
2023-07-18T11:21:20.661Z,23.83
2023-07-18T11:23:50.892Z,24.48
2023-07-18T11:26:39.016Z,24.02
2023-07-18T11:29:30.602Z,23.66
2023-07-18T11:32:35.187Z,23.14
2023-07-18T11:35:25.404Z,23.35
2023-07-18T11:38:13.580Z,23.99
2023-07-18T11:41:02.184Z,23.62
2023-07-18T11:43:55.953Z,24.28
2023-07-18T11:46:48.672Z,24.85
2023-07-18T11:49:38.349Z,25.25
2023-07-18T11:52:26.507Z,26.04
2023-07-18T11:55:16.707Z,26.15
2023-07-18T11:57:58.883Z,26.26
2023-07-18T12:00:48.014Z,26.15
2023-07-18T12:03:37.777Z,25.20
2023-07-18T12:06:27.097Z,25.11
2023-07-18T12:09:16.542Z,25.66
2023-07-18T12:12:05.405Z,24.89
2023-07-18T12:14:54.443Z,25.90
2023-07-18T12:17:44.172Z,26.15
2023-07-18T12:20:32.426Z,25.67
2023-07-18T12:23:20.580Z,25.66
2023-07-18T12:26:08.673Z,28.19
2023-07-18T12:28:56.871Z,31.92
2023-07-18T12:31:53.741Z,35.36
2023-07-18T12:34:43.543Z,37.21
2023-07-18T12:37:58.956Z,32.12
2023-07-18T12:41:19.104Z,33.31
2023-07-18T12:52:10.525Z,30.01
2023-07-18T12:55:04.336Z,29.41
2023-07-18T12:58:18.815Z,30.14
2023-07-18T13:01:00.654Z,30.73
2023-07-18T13:03:44.871Z,31.32
2023-07-18T13:06:24.633Z,32.25
2023-07-18T13:09:05.320Z,30.25
2023-07-18T13:11:45.880Z,31.36
2023-07-18T13:14:26.030Z,29.81
2023-07-18T13:17:06.224Z,29.78
2023-07-18T13:19:46.100Z,29.46
2023-07-18T13:22:26.716Z,30.10
2023-07-18T13:25:13.566Z,30.95
2023-07-18T13:27:54.845Z,32.19
2023-07-18T13:30:35.658Z,34.16
2023-07-18T13:33:15.243Z,35.65
2023-07-18T13:35:43.560Z,33.34
2023-07-18T13:38:12.386Z,32.93
2023-07-18T13:40:52.050Z,33.61
2023-07-18T13:43:34.054Z,33.55
2023-07-18T13:46:17.146Z,30.99
2023-07-18T13:48:58.066Z,30.88
2023-07-18T13:51:36.774Z,30.71
2023-07-18T13:54:16.631Z,30.72
2023-07-18T13:56:56.315Z,32.82
2023-07-18T13:59:37.729Z,31.87
2023-07-18T14:02:18.034Z,34.17
2023-07-18T14:05:00.885Z,33.47
2023-07-18T14:07:40.808Z,32.50
2023-07-18T14:10:20.432Z,29.80
2023-07-18T14:13:00.231Z,28.57
2023-07-18T14:15:49.726Z,28.23
2023-07-18T14:18:37.870Z,30.98
2023-07-18T14:21:27.390Z,32.38
2023-07-18T14:23:56.024Z,34.71
2023-07-18T14:26:40.060Z,33.08
2023-07-18T14:29:28.493Z,30.96
2023-07-18T14:32:18.938Z,32.66
2023-07-18T14:34:58.706Z,33.40
2023-07-18T14:37:46.985Z,34.97
2023-07-18T14:40:35.332Z,29.70
2023-07-18T14:43:35.449Z,27.40
2023-07-18T14:46:24.323Z,26.20
2023-07-18T14:49:12.482Z,26.24
2023-07-18T14:52:00.900Z,26.85
2023-07-18T14:54:49.122Z,27.04
2023-07-18T14:57:37.347Z,27.07
2023-07-18T15:00:20.574Z,26.75
2023-07-18T15:03:00.344Z,26.34
2023-07-18T15:05:48.551Z,25.59
2023-07-18T15:08:31.194Z,25.98
2023-07-18T15:11:22.492Z,26.07
2023-07-18T15:14:10.720Z,26.25
2023-07-18T15:17:01.470Z,26.46
2023-07-18T15:19:44.013Z,26.62
2023-07-18T15:22:33.406Z,26.65
2023-07-18T15:25:17.198Z,26.85
2023-07-18T15:28:06.179Z,25.81
2023-07-18T15:30:45.801Z,26.29
2023-07-18T15:33:35.712Z,26.99
2023-07-18T15:36:17.754Z,27.64
2023-07-18T15:39:05.845Z,28.29
2023-07-18T15:41:53.980Z,29.09
2023-07-18T15:44:42.251Z,28.64
2023-07-18T15:47:27.258Z,28.36
2023-07-18T15:50:07.883Z,27.03
2023-07-18T15:52:56.281Z,26.11
2023-07-18T15:55:44.689Z,25.73
2023-07-18T15:58:32.903Z,25.42
2023-07-18T16:01:12.532Z,24.68
2023-07-18T16:04:03.387Z,24.63
2023-07-18T16:06:44.584Z,24.20
2023-07-18T16:09:31.425Z,23.97
2023-07-18T16:12:20.762Z,24.54
2023-07-18T16:15:07.319Z,24.93
2023-07-18T16:17:57.437Z,25.29
2023-07-18T16:20:39.915Z,25.78
2023-07-18T16:23:19.681Z,26.07
2023-07-18T16:26:01.525Z,25.85
2023-07-18T16:28:41.242Z,26.17
2023-07-18T16:31:24.438Z,26.28
2023-07-18T16:34:04.064Z,26.25
2023-07-18T16:36:46.760Z,26.28
2023-07-18T16:39:26.678Z,26.31
2023-07-18T16:42:23.516Z,26.28
2023-07-18T16:44:49.881Z,26.35
2023-07-18T16:47:30.200Z,26.20
2023-07-18T16:50:17.619Z,26.00
2023-07-18T16:52:57.493Z,25.88
2023-07-18T16:55:37.449Z,25.60
2023-07-18T16:58:17.413Z,25.43
2023-07-18T17:00:59.124Z,25.37
2023-07-18T17:03:38.801Z,25.33
2023-07-18T17:06:27.066Z,25.26
2023-07-18T17:09:09.769Z,25.15
2023-07-18T17:11:58.070Z,25.01
2023-07-18T17:14:46.290Z,24.82
2023-07-18T17:17:34.795Z,24.65
2023-07-18T17:20:19.461Z,24.41
2023-07-18T17:23:05.813Z,24.23
2023-07-18T17:25:47.392Z,24.30
2023-07-18T17:28:27.401Z,24.18
2023-07-18T17:31:15.059Z,24.10
2023-07-18T17:33:54.704Z,23.92
2023-07-18T17:36:45.255Z,23.87
2023-07-18T17:39:27.867Z,23.86
2023-07-18T17:42:08.691Z,23.92
2023-07-18T17:44:57.724Z,24.05
2023-07-18T17:47:38.717Z,24.16
2023-07-18T17:50:18.442Z,24.28
2023-07-18T17:52:58.069Z,24.37
2023-07-18T17:55:37.614Z,24.31
2023-07-18T17:58:17.305Z,24.14
2023-07-18T18:00:57.779Z,24.05
2023-07-18T18:03:39.624Z,24.03
2023-07-18T18:06:22.616Z,23.76
2023-07-18T18:09:07.838Z,23.48
2023-07-18T18:11:47.783Z,23.34
2023-07-18T18:14:27.497Z,23.14
2023-07-18T18:17:07.684Z,23.00
2023-07-18T18:19:47.858Z,22.93
2023-07-18T18:22:27.029Z,22.86
2023-07-18T18:25:07.077Z,22.60
2023-07-18T18:27:57.068Z,22.39
2023-07-18T18:30:45.772Z,22.16
2023-07-18T18:33:28.609Z,22.05
2023-07-18T18:36:16.930Z,21.78
2023-07-18T18:38:56.608Z,21.60
2023-07-18T18:41:37.278Z,21.43
2023-07-18T18:44:17.180Z,21.35
2023-07-18T18:46:57.529Z,21.29
2023-07-18T18:49:47.848Z,21.33
2023-07-18T18:52:32.160Z,21.32
2023-07-18T18:55:20.264Z,21.30
2023-07-18T18:57:56.793Z,21.29
2023-07-18T19:00:36.764Z,21.20
2023-07-18T19:03:16.776Z,21.09
2023-07-18T19:05:57.246Z,20.99
2023-07-18T19:08:47.796Z,20.96
2023-07-18T19:11:27.734Z,20.91
2023-07-18T19:14:16.445Z,20.86
2023-07-18T19:16:56.164Z,20.78
2023-07-18T19:19:41.069Z,20.69
2023-07-18T19:22:20.892Z,20.65
2023-07-18T19:25:02.052Z,20.57
2023-07-18T19:27:44.729Z,20.55
2023-07-18T19:30:26.201Z,20.51
2023-07-18T19:33:14.445Z,20.44
2023-07-18T19:36:02.801Z,20.34
2023-07-18T19:38:50.704Z,20.24
2023-07-18T19:41:40.297Z,20.11
2023-07-18T19:44:21.876Z,19.99
2023-07-18T19:47:03.381Z,19.89
2023-07-18T19:49:43.269Z,19.90
2023-07-18T19:52:23.313Z,19.89
2023-07-18T19:55:12.494Z,19.90
2023-07-18T19:57:52.142Z,19.82
2023-07-18T20:00:31.976Z,19.85
2023-07-18T20:03:11.927Z,19.96
2023-07-18T20:05:51.573Z,19.89
2023-07-18T20:08:31.539Z,19.89
2023-07-18T20:11:11.212Z,19.91
2023-07-18T20:13:54.216Z,19.89
2023-07-18T20:16:35.637Z,19.82
2023-07-18T20:19:15.322Z,19.77
2023-07-18T20:22:03.549Z,19.58
2023-07-18T20:24:46.064Z,19.34
2023-07-18T20:27:38.899Z,19.46
2023-07-18T20:30:27.100Z,19.39
2023-07-18T20:33:11.613Z,19.17
2023-07-18T20:35:54.618Z,19.01
2023-07-18T20:38:34.279Z,18.96
2023-07-18T20:41:19.629Z,18.98
2023-07-18T20:43:59.149Z,18.93
2023-07-18T20:46:45.068Z,18.81
2023-07-18T20:49:32.402Z,18.66
2023-07-18T20:52:17.033Z,18.53
2023-07-18T20:54:56.845Z,18.35
2023-07-18T20:57:36.601Z,18.25
2023-07-18T21:00:17.762Z,18.19
2023-07-18T21:03:03.219Z,18.30
2023-07-18T21:05:51.666Z,18.33
2023-07-18T21:08:34.192Z,18.37
2023-07-18T21:11:14.021Z,18.32
2023-07-18T21:14:03.241Z,18.16
2023-07-18T21:16:48.389Z,18.02
2023-07-18T21:19:34.300Z,17.91
2023-07-18T21:22:22.470Z,17.82
2023-07-18T21:25:06.171Z,17.79
2023-07-18T21:27:45.947Z,17.73
2023-07-18T21:30:25.958Z,17.70
2023-07-18T21:33:10.330Z,17.60
2023-07-18T21:35:56.000Z,17.50
2023-07-18T21:38:36.658Z,17.46
2023-07-18T21:41:24.168Z,17.43
2023-07-18T21:44:03.946Z,17.42
2023-07-18T21:46:52.516Z,17.39
2023-07-18T21:49:42.941Z,17.35
2023-07-18T21:52:31.310Z,17.30
2023-07-18T21:55:20.643Z,17.20
2023-07-18T21:58:00.153Z,17.16
2023-07-18T22:00:48.503Z,17.06
2023-07-18T22:03:31.681Z,16.98
2023-07-18T22:06:20.307Z,16.79
2023-07-18T22:09:09.512Z,16.72
2023-07-18T22:11:56.172Z,16.54
2023-07-18T22:14:44.331Z,16.54
2023-07-18T22:17:31.846Z,16.60
2023-07-18T22:20:20.092Z,16.46
2023-07-18T22:23:02.813Z,16.34
2023-07-18T22:28:39.365Z,16.11
2023-07-18T22:31:19.339Z,16.09
2023-07-18T22:33:58.934Z,16.00
2023-07-18T22:36:39.934Z,15.92
2023-07-18T22:39:33.476Z,16.07
2023-07-18T22:42:17.812Z,16.06
2023-07-18T22:44:57.351Z,16.14
2023-07-18T22:47:37.206Z,16.07
2023-07-18T22:50:25.449Z,16.13
2023-07-18T22:53:14.000Z,16.16
2023-07-18T22:55:56.577Z,16.18
2023-07-18T22:58:36.109Z,16.14
2023-07-18T23:01:15.934Z,16.14
2023-07-18T23:03:55.642Z,16.28
2023-07-18T23:06:46.418Z,16.18
2023-07-18T23:09:26.961Z,16.06
2023-07-18T23:12:08.136Z,15.97
2023-07-18T23:14:53.616Z,15.90
2023-07-18T23:17:33.498Z,15.87
2023-07-18T23:20:21.581Z,15.87
2023-07-18T23:23:09.793Z,15.90
2023-07-18T23:25:49.497Z,15.93
2023-07-18T23:28:29.077Z,15.96
2023-07-18T23:31:09.060Z,16.05
2023-07-18T23:33:48.746Z,16.07
2023-07-18T23:36:37.241Z,16.02
2023-07-18T23:39:19.863Z,15.92
2023-07-18T23:41:59.864Z,15.86
2023-07-18T23:44:39.616Z,15.85
2023-07-18T23:47:19.302Z,15.79
2023-07-18T23:50:07.670Z,15.81
2023-07-18T23:52:47.450Z,15.82
2023-07-18T23:55:27.098Z,15.99
2023-07-18T23:58:06.670Z,15.92
